sensor_id;sensor_type;location;lat;lon;timestamp;temperature;humidity
2897;DHT22;1458;49.728;9.228;2024-01-30T00:00:25;1.20;99.90
2897;DHT22;1458;49.728;9.228;2024-01-30T00:02:52;1.00;99.90
2897;DHT22;1458;49.728;9.228;2024-01-30T00:05:19;0.90;99.90
2897;DHT22;1458;49.728;9.228;2024-01-30T00:07:47;1.10;99.90
2897;DHT22;1458;49.728;9.228;2024-01-30T00:10:14;0.90;99.90
2897;DHT22;1458;49.728;9.228;2024-01-30T00:12:42;0.90;99.90
2897;DHT22;1458;49.728;9.228;2024-01-30T00:15:11;0.70;99.90
2897;DHT22;1458;49.728;9.228;2024-01-30T00:17:38;0.50;99.90
2897;DHT22;1458;49.728;9.228;2024-01-30T00:20:06;0.40;99.90
2897;DHT22;1458;49.728;9.228;2024-01-30T00:22:35;0.40;99.90
2897;DHT22;1458;49.728;9.228;2024-01-30T00:25:03;0.70;99.90
2897;DHT22;1458;49.728;9.228;2024-01-30T00:27:30;0.70;99.90
2897;DHT22;1458;49.728;9.228;2024-01-30T00:29:58;0.80;99.90
2897;DHT22;1458;49.728;9.228;2024-01-30T00:32:29;1.00;99.90
2897;DHT22;1458;49.728;9.228;2024-01-30T00:34:57;1.10;99.90
2897;DHT22;1458;49.728;9.228;2024-01-30T00:37:24;1.20;99.90
2897;DHT22;1458;49.728;9.228;2024-01-30T00:39:52;1.20;99.90
2897;DHT22;1458;49.728;9.228;2024-01-30T00:42:19;1.30;99.90
2897;DHT22;1458;49.728;9.228;2024-01-30T00:44:47;1.30;99.90
2897;DHT22;1458;49.728;9.228;2024-01-30T00:47:14;1.30;99.90
2897;DHT22;1458;49.728;9.228;2024-01-30T00:49:43;1.30;99.90
2897;DHT22;1458;49.728;9.228;2024-01-30T00:52:10;1.30;99.90
2897;DHT22;1458;49.728;9.228;2024-01-30T00:54:38;1.20;99.90
2897;DHT22;1458;49.728;9.228;2024-01-30T00:57:05;1.30;99.90
2897;DHT22;1458;49.728;9.228;2024-01-30T00:59:33;1.30;99.90
2897;DHT22;1458;49.728;9.228;2024-01-30T01:02:00;1.10;99.90
2897;DHT22;1458;49.728;9.228;2024-01-30T01:04:28;1.00;99.90
2897;DHT22;1458;49.728;9.228;2024-01-30T01:06:57;0.80;99.90
2897;DHT22;1458;49.728;9.228;2024-01-30T01:09:24;0.60;99.90
2897;DHT22;1458;49.728;9.228;2024-01-30T01:11:52;0.50;99.90
2897;DHT22;1458;49.728;9.228;2024-01-30T01:14:19;0.60;99.90
2897;DHT22;1458;49.728;9.228;2024-01-30T01:16:47;0.70;99.90
2897;DHT22;1458;49.728;9.228;2024-01-30T01:19:14;0.80;99.90
2897;DHT22;1458;49.728;9.228;2024-01-30T01:21:41;1.00;99.90
2897;DHT22;1458;49.728;9.228;2024-01-30T01:28:16;1.20;99.90
2897;DHT22;1458;49.728;9.228;2024-01-30T01:30:44;1.20;99.90
2897;DHT22;1458;49.728;9.228;2024-01-30T01:33:12;1.10;99.90
2897;DHT22;1458;49.728;9.228;2024-01-30T01:35:40;1.10;99.90
2897;DHT22;1458;49.728;9.228;2024-01-30T01:38:07;1.00;99.90
2897;DHT22;1458;49.728;9.228;2024-01-30T01:40:34;1.10;99.90
2897;DHT22;1458;49.728;9.228;2024-01-30T01:43:03;1.10;99.90
2897;DHT22;1458;49.728;9.228;2024-01-30T01:45:33;1.10;99.90
2897;DHT22;1458;49.728;9.228;2024-01-30T01:48:00;1.20;99.90
2897;DHT22;1458;49.728;9.228;2024-01-30T01:50:28;1.20;99.90
2897;DHT22;1458;49.728;9.228;2024-01-30T01:52:55;1.20;99.90
2897;DHT22;1458;49.728;9.228;2024-01-30T01:55:23;1.20;99.90
2897;DHT22;1458;49.728;9.228;2024-01-30T01:57:54;1.30;99.90
2897;DHT22;1458;49.728;9.228;2024-01-30T02:00:21;1.30;99.90
2897;DHT22;1458;49.728;9.228;2024-01-30T02:02:51;1.20;99.90
2897;DHT22;1458;49.728;9.228;2024-01-30T02:05:20;1.30;99.90
2897;DHT22;1458;49.728;9.228;2024-01-30T02:07:48;1.30;99.90
2897;DHT22;1458;49.728;9.228;2024-01-30T02:10:15;1.30;99.90
2897;DHT22;1458;49.728;9.228;2024-01-30T02:12:43;1.20;99.90
2897;DHT22;1458;49.728;9.228;2024-01-30T02:15:13;1.10;99.90
2897;DHT22;1458;49.728;9.228;2024-01-30T02:17:41;0.80;99.90
2897;DHT22;1458;49.728;9.228;2024-01-30T02:20:10;0.50;99.90
2897;DHT22;1458;49.728;9.228;2024-01-30T02:22:40;0.40;99.90
2897;DHT22;1458;49.728;9.228;2024-01-30T02:25:08;0.30;99.90
2897;DHT22;1458;49.728;9.228;2024-01-30T02:27:36;0.30;99.90
2897;DHT22;1458;49.728;9.228;2024-01-30T02:30:05;0.20;99.90
2897;DHT22;1458;49.728;9.228;2024-01-30T02:32:33;0.10;99.90
2897;DHT22;1458;49.728;9.228;2024-01-30T02:35:00;0.20;99.90
2897;DHT22;1458;49.728;9.228;2024-01-30T02:37:28;0.10;99.90
2897;DHT22;1458;49.728;9.228;2024-01-30T02:39:57;0.00;99.90
2897;DHT22;1458;49.728;9.228;2024-01-30T02:42:24;0.00;99.90
2897;DHT22;1458;49.728;9.228;2024-01-30T02:44:51;0.00;99.90
2897;DHT22;1458;49.728;9.228;2024-01-30T02:47:19;0.00;99.90
2897;DHT22;1458;49.728;9.228;2024-01-30T02:49:46;0.10;99.90
2897;DHT22;1458;49.728;9.228;2024-01-30T02:52:14;0.20;99.90
2897;DHT22;1458;49.728;9.228;2024-01-30T02:54:41;0.10;99.90
2897;DHT22;1458;49.728;9.228;2024-01-30T02:57:10;0.20;99.90
2897;DHT22;1458;49.728;9.228;2024-01-30T02:59:37;0.30;99.90
2897;DHT22;1458;49.728;9.228;2024-01-30T03:02:05;0.40;99.90
2897;DHT22;1458;49.728;9.228;2024-01-30T03:04:32;0.50;99.90
2897;DHT22;1458;49.728;9.228;2024-01-30T03:06:59;0.60;99.90
2897;DHT22;1458;49.728;9.228;2024-01-30T03:09:27;0.70;99.90
2897;DHT22;1458;49.728;9.228;2024-01-30T03:11:54;0.70;99.90
2897;DHT22;1458;49.728;9.228;2024-01-30T03:14:23;0.70;99.90
2897;DHT22;1458;49.728;9.228;2024-01-30T03:16:50;0.70;99.90
2897;DHT22;1458;49.728;9.228;2024-01-30T03:19:18;0.70;99.90
2897;DHT22;1458;49.728;9.228;2024-01-30T03:21:45;0.70;99.90
2897;DHT22;1458;49.728;9.228;2024-01-30T03:24:13;0.70;99.90
2897;DHT22;1458;49.728;9.228;2024-01-30T03:26:40;0.70;99.90
2897;DHT22;1458;49.728;9.228;2024-01-30T03:29:07;0.60;99.90
2897;DHT22;1458;49.728;9.228;2024-01-30T03:31:36;0.70;99.90
2897;DHT22;1458;49.728;9.228;2024-01-30T03:34:03;0.70;99.90
2897;DHT22;1458;49.728;9.228;2024-01-30T03:36:31;0.40;99.90
2897;DHT22;1458;49.728;9.228;2024-01-30T03:39:00;0.20;99.90
2897;DHT22;1458;49.728;9.228;2024-01-30T03:41:27;0.30;99.90
2897;DHT22;1458;49.728;9.228;2024-01-30T03:43:55;0.40;99.90
2897;DHT22;1458;49.728;9.228;2024-01-30T03:46:22;0.40;99.90
2897;DHT22;1458;49.728;9.228;2024-01-30T03:48:51;0.50;99.90
2897;DHT22;1458;49.728;9.228;2024-01-30T03:51:19;0.70;99.90
2897;DHT22;1458;49.728;9.228;2024-01-30T03:53:46;0.80;99.90
2897;DHT22;1458;49.728;9.228;2024-01-30T03:56:13;0.80;99.90
2897;DHT22;1458;49.728;9.228;2024-01-30T03:58:41;0.80;99.90
2897;DHT22;1458;49.728;9.228;2024-01-30T04:01:13;0.80;99.90
2897;DHT22;1458;49.728;9.228;2024-01-30T04:03:41;0.60;99.90
2897;DHT22;1458;49.728;9.228;2024-01-30T04:06:11;0.50;99.90
2897;DHT22;1458;49.728;9.228;2024-01-30T04:08:39;0.70;99.90
2897;DHT22;1458;49.728;9.228;2024-01-30T04:11:06;0.80;99.90
2897;DHT22;1458;49.728;9.228;2024-01-30T04:13:34;0.80;99.90
2897;DHT22;1458;49.728;9.228;2024-01-30T04:16:02;0.70;99.90
2897;DHT22;1458;49.728;9.228;2024-01-30T04:18:30;0.60;99.90
2897;DHT22;1458;49.728;9.228;2024-01-30T04:20:58;0.50;99.90
2897;DHT22;1458;49.728;9.228;2024-01-30T04:23:27;0.40;99.90
2897;DHT22;1458;49.728;9.228;2024-01-30T04:25:55;0.20;99.90
2897;DHT22;1458;49.728;9.228;2024-01-30T04:28:22;0.20;99.90
2897;DHT22;1458;49.728;9.228;2024-01-30T04:30:49;0.00;99.90
2897;DHT22;1458;49.728;9.228;2024-01-30T04:33:17;0.00;99.90
2897;DHT22;1458;49.728;9.228;2024-01-30T04:35:44;-0.10;99.90
2897;DHT22;1458;49.728;9.228;2024-01-30T04:38:12;-0.20;99.90
2897;DHT22;1458;49.728;9.228;2024-01-30T04:40:41;-0.20;99.90
2897;DHT22;1458;49.728;9.228;2024-01-30T04:43:09;-0.10;99.90
2897;DHT22;1458;49.728;9.228;2024-01-30T04:45:37;-0.20;99.90
2897;DHT22;1458;49.728;9.228;2024-01-30T04:48:05;-0.20;99.90
2897;DHT22;1458;49.728;9.228;2024-01-30T04:50:34;-0.10;99.90
2897;DHT22;1458;49.728;9.228;2024-01-30T04:53:02;-0.30;99.90
2897;DHT22;1458;49.728;9.228;2024-01-30T04:55:29;-0.40;99.90
2897;DHT22;1458;49.728;9.228;2024-01-30T04:57:58;-0.40;99.90
2897;DHT22;1458;49.728;9.228;2024-01-30T05:00:25;-0.20;99.90
2897;DHT22;1458;49.728;9.228;2024-01-30T05:02:54;-0.30;99.90
2897;DHT22;1458;49.728;9.228;2024-01-30T05:05:21;-0.20;99.90
2897;DHT22;1458;49.728;9.228;2024-01-30T05:07:49;-0.40;99.90
2897;DHT22;1458;49.728;9.228;2024-01-30T05:10:16;-0.40;99.90
2897;DHT22;1458;49.728;9.228;2024-01-30T05:12:44;-0.40;99.90
2897;DHT22;1458;49.728;9.228;2024-01-30T05:15:13;-0.40;99.90
2897;DHT22;1458;49.728;9.228;2024-01-30T05:17:40;-0.30;99.90
2897;DHT22;1458;49.728;9.228;2024-01-30T05:20:09;-0.30;99.90
2897;DHT22;1458;49.728;9.228;2024-01-30T05:22:37;-0.40;99.90
2897;DHT22;1458;49.728;9.228;2024-01-30T05:25:10;-0.50;99.90
2897;DHT22;1458;49.728;9.228;2024-01-30T05:27:38;-0.30;99.90
2897;DHT22;1458;49.728;9.228;2024-01-30T05:30:07;-0.30;99.90
2897;DHT22;1458;49.728;9.228;2024-01-30T05:32:36;-0.40;99.90
2897;DHT22;1458;49.728;9.228;2024-01-30T05:35:04;-0.50;99.90
2897;DHT22;1458;49.728;9.228;2024-01-30T05:37:33;-0.50;99.90
2897;DHT22;1458;49.728;9.228;2024-01-30T05:40:01;-0.60;99.90
2897;DHT22;1458;49.728;9.228;2024-01-30T05:42:28;-0.70;99.90
2897;DHT22;1458;49.728;9.228;2024-01-30T05:44:56;-0.50;99.90
2897;DHT22;1458;49.728;9.228;2024-01-30T05:47:26;-0.50;99.90
2897;DHT22;1458;49.728;9.228;2024-01-30T05:49:55;-0.50;99.90
2897;DHT22;1458;49.728;9.228;2024-01-30T05:52:22;-0.50;99.90
2897;DHT22;1458;49.728;9.228;2024-01-30T05:54:50;-0.60;99.90
2897;DHT22;1458;49.728;9.228;2024-01-30T05:57:17;-0.70;99.90
2897;DHT22;1458;49.728;9.228;2024-01-30T05:59:45;-0.60;99.90
2897;DHT22;1458;49.728;9.228;2024-01-30T06:02:13;-0.60;99.90
2897;DHT22;1458;49.728;9.228;2024-01-30T06:04:40;-0.70;99.90
2897;DHT22;1458;49.728;9.228;2024-01-30T06:07:09;-0.70;99.90
2897;DHT22;1458;49.728;9.228;2024-01-30T06:09:37;-0.70;99.90
2897;DHT22;1458;49.728;9.228;2024-01-30T06:12:05;-0.30;99.90
2897;DHT22;1458;49.728;9.228;2024-01-30T06:14:33;0.00;99.90
2897;DHT22;1458;49.728;9.228;2024-01-30T06:17:00;0.20;99.90
2897;DHT22;1458;49.728;9.228;2024-01-30T06:19:28;0.20;99.90
2897;DHT22;1458;49.728;9.228;2024-01-30T06:21:57;0.30;99.90
2897;DHT22;1458;49.728;9.228;2024-01-30T06:24:26;0.20;99.90
2897;DHT22;1458;49.728;9.228;2024-01-30T06:26:54;0.00;99.90
2897;DHT22;1458;49.728;9.228;2024-01-30T06:29:22;-0.10;99.90
2897;DHT22;1458;49.728;9.228;2024-01-30T06:31:50;-0.10;99.90
2897;DHT22;1458;49.728;9.228;2024-01-30T06:34:18;0.00;99.90
2897;DHT22;1458;49.728;9.228;2024-01-30T06:36:46;-0.10;99.90
2897;DHT22;1458;49.728;9.228;2024-01-30T06:39:13;-0.20;99.90
2897;DHT22;1458;49.728;9.228;2024-01-30T06:41:42;-0.20;99.90
2897;DHT22;1458;49.728;9.228;2024-01-30T06:44:12;-0.30;99.90
2897;DHT22;1458;49.728;9.228;2024-01-30T06:46:39;-0.40;99.90
2897;DHT22;1458;49.728;9.228;2024-01-30T06:49:07;-0.50;99.90
2897;DHT22;1458;49.728;9.228;2024-01-30T06:51:34;-0.50;99.90
2897;DHT22;1458;49.728;9.228;2024-01-30T06:54:02;-0.30;99.90
2897;DHT22;1458;49.728;9.228;2024-01-30T06:56:29;-0.30;99.90
2897;DHT22;1458;49.728;9.228;2024-01-30T06:58:58;-0.40;99.90
2897;DHT22;1458;49.728;9.228;2024-01-30T07:01:28;-0.40;99.90
2897;DHT22;1458;49.728;9.228;2024-01-30T07:03:56;-0.30;99.90
2897;DHT22;1458;49.728;9.228;2024-01-30T07:06:23;-0.20;99.90
2897;DHT22;1458;49.728;9.228;2024-01-30T07:08:51;-0.10;99.90
2897;DHT22;1458;49.728;9.228;2024-01-30T07:11:19;-0.10;99.90
2897;DHT22;1458;49.728;9.228;2024-01-30T07:13:47;0.00;99.90
2897;DHT22;1458;49.728;9.228;2024-01-30T07:16:16;0.00;99.90
2897;DHT22;1458;49.728;9.228;2024-01-30T07:18:44;0.00;99.90
2897;DHT22;1458;49.728;9.228;2024-01-30T07:21:11;0.10;99.90
2897;DHT22;1458;49.728;9.228;2024-01-30T07:23:39;0.10;99.90
2897;DHT22;1458;49.728;9.228;2024-01-30T07:26:07;0.20;99.90
2897;DHT22;1458;49.728;9.228;2024-01-30T07:28:35;0.10;99.90
2897;DHT22;1458;49.728;9.228;2024-01-30T07:31:03;0.10;99.90
2897;DHT22;1458;49.728;9.228;2024-01-30T07:33:32;0.10;99.90
2897;DHT22;1458;49.728;9.228;2024-01-30T07:35:59;0.10;99.90
2897;DHT22;1458;49.728;9.228;2024-01-30T07:38:27;0.10;99.90
2897;DHT22;1458;49.728;9.228;2024-01-30T07:40:54;0.10;99.90
2897;DHT22;1458;49.728;9.228;2024-01-30T07:43:22;0.10;99.90
2897;DHT22;1458;49.728;9.228;2024-01-30T07:45:49;0.30;99.90
2897;DHT22;1458;49.728;9.228;2024-01-30T07:48:17;0.30;99.90
2897;DHT22;1458;49.728;9.228;2024-01-30T07:50:46;0.30;99.90
2897;DHT22;1458;49.728;9.228;2024-01-30T07:53:13;0.40;99.90
2897;DHT22;1458;49.728;9.228;2024-01-30T07:55:40;0.50;99.90
2897;DHT22;1458;49.728;9.228;2024-01-30T07:58:12;0.50;99.90
2897;DHT22;1458;49.728;9.228;2024-01-30T08:00:40;0.60;99.90
2897;DHT22;1458;49.728;9.228;2024-01-30T08:03:07;0.60;99.90
2897;DHT22;1458;49.728;9.228;2024-01-30T08:05:34;0.60;99.90
2897;DHT22;1458;49.728;9.228;2024-01-30T08:08:04;0.70;99.90
2897;DHT22;1458;49.728;9.228;2024-01-30T08:10:31;0.70;99.90
2897;DHT22;1458;49.728;9.228;2024-01-30T08:12:59;0.90;99.90
2897;DHT22;1458;49.728;9.228;2024-01-30T08:15:27;1.00;99.90
2897;DHT22;1458;49.728;9.228;2024-01-30T08:17:55;1.10;99.90
2897;DHT22;1458;49.728;9.228;2024-01-30T08:20:23;1.10;99.90
2897;DHT22;1458;49.728;9.228;2024-01-30T08:22:51;1.20;99.90
2897;DHT22;1458;49.728;9.228;2024-01-30T08:25:20;1.20;99.90
2897;DHT22;1458;49.728;9.228;2024-01-30T08:27:48;1.40;99.90
2897;DHT22;1458;49.728;9.228;2024-01-30T08:30:16;1.40;99.90
2897;DHT22;1458;49.728;9.228;2024-01-30T08:32:43;1.40;99.90
2897;DHT22;1458;49.728;9.228;2024-01-30T08:35:11;1.50;99.90
2897;DHT22;1458;49.728;9.228;2024-01-30T08:37:40;1.60;99.90
2897;DHT22;1458;49.728;9.228;2024-01-30T08:40:08;1.60;99.90
2897;DHT22;1458;49.728;9.228;2024-01-30T08:42:38;1.70;99.90
2897;DHT22;1458;49.728;9.228;2024-01-30T08:45:06;1.80;99.90
2897;DHT22;1458;49.728;9.228;2024-01-30T08:47:35;1.90;99.90
2897;DHT22;1458;49.728;9.228;2024-01-30T08:50:03;2.00;99.90
2897;DHT22;1458;49.728;9.228;2024-01-30T08:52:31;2.10;99.90
2897;DHT22;1458;49.728;9.228;2024-01-30T08:54:59;2.20;99.90
2897;DHT22;1458;49.728;9.228;2024-01-30T08:57:27;2.30;99.90
2897;DHT22;1458;49.728;9.228;2024-01-30T08:59:57;2.30;99.90
2897;DHT22;1458;49.728;9.228;2024-01-30T09:02:25;2.30;99.90
2897;DHT22;1458;49.728;9.228;2024-01-30T09:04:52;2.70;99.90
2897;DHT22;1458;49.728;9.228;2024-01-30T09:07:19;2.70;99.90
2897;DHT22;1458;49.728;9.228;2024-01-30T09:09:47;2.70;99.90
2897;DHT22;1458;49.728;9.228;2024-01-30T09:12:14;2.90;99.10
2897;DHT22;1458;49.728;9.228;2024-01-30T09:14:42;2.90;99.90
2897;DHT22;1458;49.728;9.228;2024-01-30T09:17:11;2.70;99.90
2897;DHT22;1458;49.728;9.228;2024-01-30T09:19:39;2.60;99.90
2897;DHT22;1458;49.728;9.228;2024-01-30T09:22:07;3.00;99.90
2897;DHT22;1458;49.728;9.228;2024-01-30T09:24:34;3.20;98.70
2897;DHT22;1458;49.728;9.228;2024-01-30T09:27:02;3.20;97.30
2897;DHT22;1458;49.728;9.228;2024-01-30T09:29:29;3.30;96.80
2897;DHT22;1458;49.728;9.228;2024-01-30T09:31:57;3.30;96.90
2897;DHT22;1458;49.728;9.228;2024-01-30T09:34:26;3.20;96.80
2897;DHT22;1458;49.728;9.228;2024-01-30T09:36:53;3.30;96.80
2897;DHT22;1458;49.728;9.228;2024-01-30T09:39:19;3.40;96.80
2897;DHT22;1458;49.728;9.228;2024-01-30T09:41:49;3.60;94.70
2897;DHT22;1458;49.728;9.228;2024-01-30T09:44:29;3.70;94.80
2897;DHT22;1458;49.728;9.228;2024-01-30T09:46:57;3.60;95.80
2897;DHT22;1458;49.728;9.228;2024-01-30T09:49:32;3.70;95.10
2897;DHT22;1458;49.728;9.228;2024-01-30T09:52:00;3.70;95.20
2897;DHT22;1458;49.728;9.228;2024-01-30T09:54:30;3.70;95.40
2897;DHT22;1458;49.728;9.228;2024-01-30T09:56:57;3.90;94.20
2897;DHT22;1458;49.728;9.228;2024-01-30T09:59:25;4.00;93.50
2897;DHT22;1458;49.728;9.228;2024-01-30T10:01:53;4.10;92.70
2897;DHT22;1458;49.728;9.228;2024-01-30T10:04:20;4.10;92.80
2897;DHT22;1458;49.728;9.228;2024-01-30T10:06:50;4.20;93.10
2897;DHT22;1458;49.728;9.228;2024-01-30T10:09:17;4.10;93.60
2897;DHT22;1458;49.728;9.228;2024-01-30T10:11:45;4.20;93.50
2897;DHT22;1458;49.728;9.228;2024-01-30T10:14:12;4.20;92.50
2897;DHT22;1458;49.728;9.228;2024-01-30T10:16:40;4.30;92.90
2897;DHT22;1458;49.728;9.228;2024-01-30T10:19:09;4.30;92.80
2897;DHT22;1458;49.728;9.228;2024-01-30T10:21:37;4.30;92.20
2897;DHT22;1458;49.728;9.228;2024-01-30T10:24:06;4.30;91.80
2897;DHT22;1458;49.728;9.228;2024-01-30T10:26:34;4.30;92.10
2897;DHT22;1458;49.728;9.228;2024-01-30T10:29:03;4.80;91.90
2897;DHT22;1458;49.728;9.228;2024-01-30T10:31:30;4.80;91.20
2897;DHT22;1458;49.728;9.228;2024-01-30T10:33:58;5.10;90.90
2897;DHT22;1458;49.728;9.228;2024-01-30T10:36:28;5.20;90.30
2897;DHT22;1458;49.728;9.228;2024-01-30T10:38:59;5.30;89.00
2897;DHT22;1458;49.728;9.228;2024-01-30T10:41:31;5.40;88.70
2897;DHT22;1458;49.728;9.228;2024-01-30T10:44:08;5.40;89.20
2897;DHT22;1458;49.728;9.228;2024-01-30T10:46:38;5.60;86.70
2897;DHT22;1458;49.728;9.228;2024-01-30T10:49:06;5.70;85.20
2897;DHT22;1458;49.728;9.228;2024-01-30T10:51:34;5.60;86.10
2897;DHT22;1458;49.728;9.228;2024-01-30T10:54:03;5.50;85.60
2897;DHT22;1458;49.728;9.228;2024-01-30T10:56:34;5.70;85.70
2897;DHT22;1458;49.728;9.228;2024-01-30T10:59:02;5.70;85.00
2897;DHT22;1458;49.728;9.228;2024-01-30T11:01:30;5.70;85.60
2897;DHT22;1458;49.728;9.228;2024-01-30T11:03:58;5.80;84.30
2897;DHT22;1458;49.728;9.228;2024-01-30T11:06:26;5.90;85.80
2897;DHT22;1458;49.728;9.228;2024-01-30T11:09:03;5.80;83.30
2897;DHT22;1458;49.728;9.228;2024-01-30T11:11:49;5.90;85.70
2897;DHT22;1458;49.728;9.228;2024-01-30T11:14:23;5.90;83.60
2897;DHT22;1458;49.728;9.228;2024-01-30T11:16:51;6.10;86.00
2897;DHT22;1458;49.728;9.228;2024-01-30T11:19:23;6.30;84.80
2897;DHT22;1458;49.728;9.228;2024-01-30T11:21:52;6.40;82.50
2897;DHT22;1458;49.728;9.228;2024-01-30T11:24:22;6.30;81.10
2897;DHT22;1458;49.728;9.228;2024-01-30T11:26:55;6.50;81.20
2897;DHT22;1458;49.728;9.228;2024-01-30T11:29:24;6.60;82.50
2897;DHT22;1458;49.728;9.228;2024-01-30T11:31:52;6.50;80.90
2897;DHT22;1458;49.728;9.228;2024-01-30T11:34:20;6.40;80.10
2897;DHT22;1458;49.728;9.228;2024-01-30T11:36:52;6.50;82.20
2897;DHT22;1458;49.728;9.228;2024-01-30T11:39:25;6.60;79.20
2897;DHT22;1458;49.728;9.228;2024-01-30T11:41:55;6.60;79.00
2897;DHT22;1458;49.728;9.228;2024-01-30T11:44:22;6.60;79.60
2897;DHT22;1458;49.728;9.228;2024-01-30T11:46:51;6.60;80.20
2897;DHT22;1458;49.728;9.228;2024-01-30T11:49:19;6.80;80.30
2897;DHT22;1458;49.728;9.228;2024-01-30T11:51:47;6.90;79.60
2897;DHT22;1458;49.728;9.228;2024-01-30T11:54:15;7.00;76.70
2897;DHT22;1458;49.728;9.228;2024-01-30T11:56:43;7.10;76.40
2897;DHT22;1458;49.728;9.228;2024-01-30T11:59:13;7.10;76.90
2897;DHT22;1458;49.728;9.228;2024-01-30T12:01:40;7.10;76.10
2897;DHT22;1458;49.728;9.228;2024-01-30T12:04:09;6.80;75.50
2897;DHT22;1458;49.728;9.228;2024-01-30T12:06:37;6.90;79.00
2897;DHT22;1458;49.728;9.228;2024-01-30T12:09:05;7.20;78.40
2897;DHT22;1458;49.728;9.228;2024-01-30T12:11:43;7.30;78.10
2897;DHT22;1458;49.728;9.228;2024-01-30T12:14:13;7.40;78.90
2897;DHT22;1458;49.728;9.228;2024-01-30T12:16:41;7.40;76.50
2897;DHT22;1458;49.728;9.228;2024-01-30T12:19:08;7.30;76.70
2897;DHT22;1458;49.728;9.228;2024-01-30T12:21:37;7.30;76.90
2897;DHT22;1458;49.728;9.228;2024-01-30T12:24:05;7.30;76.00
2897;DHT22;1458;49.728;9.228;2024-01-30T12:26:34;7.30;77.70
2897;DHT22;1458;49.728;9.228;2024-01-30T12:29:04;7.30;76.80
2897;DHT22;1458;49.728;9.228;2024-01-30T12:31:33;7.30;77.50
2897;DHT22;1458;49.728;9.228;2024-01-30T12:34:00;7.50;77.40
2897;DHT22;1458;49.728;9.228;2024-01-30T12:36:28;7.60;77.30
2897;DHT22;1458;49.728;9.228;2024-01-30T12:38:57;7.60;76.20
2897;DHT22;1458;49.728;9.228;2024-01-30T12:41:24;7.80;76.10
2897;DHT22;1458;49.728;9.228;2024-01-30T12:43:54;7.80;75.10
2897;DHT22;1458;49.728;9.228;2024-01-30T12:46:26;7.80;75.30
2897;DHT22;1458;49.728;9.228;2024-01-30T12:48:56;7.80;74.60
2897;DHT22;1458;49.728;9.228;2024-01-30T12:51:23;7.80;74.40
2897;DHT22;1458;49.728;9.228;2024-01-30T12:53:51;7.80;75.40
2897;DHT22;1458;49.728;9.228;2024-01-30T12:56:18;8.00;75.90
2897;DHT22;1458;49.728;9.228;2024-01-30T12:58:46;8.00;75.90
2897;DHT22;1458;49.728;9.228;2024-01-30T13:01:13;8.00;75.90
2897;DHT22;1458;49.728;9.228;2024-01-30T13:03:41;8.10;75.60
2897;DHT22;1458;49.728;9.228;2024-01-30T13:06:10;8.10;74.40
2897;DHT22;1458;49.728;9.228;2024-01-30T13:08:37;8.30;74.00
2897;DHT22;1458;49.728;9.228;2024-01-30T13:11:04;8.10;73.30
2897;DHT22;1458;49.728;9.228;2024-01-30T13:13:32;8.10;74.60
2897;DHT22;1458;49.728;9.228;2024-01-30T13:16:01;8.10;73.30
2897;DHT22;1458;49.728;9.228;2024-01-30T13:18:28;8.10;73.10
2897;DHT22;1458;49.728;9.228;2024-01-30T13:20:56;8.10;73.30
2897;DHT22;1458;49.728;9.228;2024-01-30T13:23:25;8.00;73.10
2897;DHT22;1458;49.728;9.228;2024-01-30T13:25:52;7.90;75.70
2897;DHT22;1458;49.728;9.228;2024-01-30T13:28:23;7.80;74.00
2897;DHT22;1458;49.728;9.228;2024-01-30T13:30:51;7.80;75.80
2897;DHT22;1458;49.728;9.228;2024-01-30T13:33:18;7.90;75.60
2897;DHT22;1458;49.728;9.228;2024-01-30T13:35:46;8.10;75.10
2897;DHT22;1458;49.728;9.228;2024-01-30T13:38:13;8.10;74.40
2897;DHT22;1458;49.728;9.228;2024-01-30T13:40:43;8.20;73.80
2897;DHT22;1458;49.728;9.228;2024-01-30T13:43:10;8.20;73.40
2897;DHT22;1458;49.728;9.228;2024-01-30T13:45:38;8.10;74.30
2897;DHT22;1458;49.728;9.228;2024-01-30T13:48:06;8.20;75.40
2897;DHT22;1458;49.728;9.228;2024-01-30T13:50:33;8.30;73.70
2897;DHT22;1458;49.728;9.228;2024-01-30T13:53:02;8.40;74.40
2897;DHT22;1458;49.728;9.228;2024-01-30T13:55:30;8.40;74.70
2897;DHT22;1458;49.728;9.228;2024-01-30T13:57:59;8.40;75.30
2897;DHT22;1458;49.728;9.228;2024-01-30T14:00:27;8.40;74.70
2897;DHT22;1458;49.728;9.228;2024-01-30T14:02:55;8.30;74.70
2897;DHT22;1458;49.728;9.228;2024-01-30T14:05:24;8.40;75.30
2897;DHT22;1458;49.728;9.228;2024-01-30T14:07:51;8.40;74.40
2897;DHT22;1458;49.728;9.228;2024-01-30T14:10:19;8.40;73.50
2897;DHT22;1458;49.728;9.228;2024-01-30T14:12:46;8.40;75.20
2897;DHT22;1458;49.728;9.228;2024-01-30T14:15:16;8.40;75.00
2897;DHT22;1458;49.728;9.228;2024-01-30T14:17:44;8.50;75.00
2897;DHT22;1458;49.728;9.228;2024-01-30T14:20:14;8.40;73.30
2897;DHT22;1458;49.728;9.228;2024-01-30T14:22:42;8.30;73.60
2897;DHT22;1458;49.728;9.228;2024-01-30T14:25:10;8.20;74.80
2897;DHT22;1458;49.728;9.228;2024-01-30T14:27:38;8.20;74.60
2897;DHT22;1458;49.728;9.228;2024-01-30T14:30:06;8.30;74.70
2897;DHT22;1458;49.728;9.228;2024-01-30T14:32:39;8.30;74.90
2897;DHT22;1458;49.728;9.228;2024-01-30T14:35:08;8.30;74.40
2897;DHT22;1458;49.728;9.228;2024-01-30T14:37:36;8.30;75.30
2897;DHT22;1458;49.728;9.228;2024-01-30T14:40:05;8.30;75.90
2897;DHT22;1458;49.728;9.228;2024-01-30T14:42:35;8.30;77.50
2897;DHT22;1458;49.728;9.228;2024-01-30T14:45:03;8.30;78.30
2897;DHT22;1458;49.728;9.228;2024-01-30T14:47:32;8.30;78.40
2897;DHT22;1458;49.728;9.228;2024-01-30T14:50:02;8.20;77.00
2897;DHT22;1458;49.728;9.228;2024-01-30T14:52:31;8.30;76.60
2897;DHT22;1458;49.728;9.228;2024-01-30T14:54:58;8.30;76.60
2897;DHT22;1458;49.728;9.228;2024-01-30T14:57:26;8.30;76.60
2897;DHT22;1458;49.728;9.228;2024-01-30T14:59:54;8.30;76.40
2897;DHT22;1458;49.728;9.228;2024-01-30T15:02:22;8.20;77.60
2897;DHT22;1458;49.728;9.228;2024-01-30T15:04:49;8.10;79.10
2897;DHT22;1458;49.728;9.228;2024-01-30T15:07:18;8.10;77.70
2897;DHT22;1458;49.728;9.228;2024-01-30T15:09:45;8.00;78.80
2897;DHT22;1458;49.728;9.228;2024-01-30T15:12:13;8.00;79.40
2897;DHT22;1458;49.728;9.228;2024-01-30T15:14:40;7.90;81.10
2897;DHT22;1458;49.728;9.228;2024-01-30T15:17:16;7.90;79.70
2897;DHT22;1458;49.728;9.228;2024-01-30T15:19:43;7.80;78.20
2897;DHT22;1458;49.728;9.228;2024-01-30T15:22:11;7.80;78.40
2897;DHT22;1458;49.728;9.228;2024-01-30T15:24:39;7.80;81.00
2897;DHT22;1458;49.728;9.228;2024-01-30T15:27:07;7.60;81.30
2897;DHT22;1458;49.728;9.228;2024-01-30T15:29:35;7.60;82.30
2897;DHT22;1458;49.728;9.228;2024-01-30T15:32:03;7.50;83.20
2897;DHT22;1458;49.728;9.228;2024-01-30T15:34:30;7.40;83.10
2897;DHT22;1458;49.728;9.228;2024-01-30T15:36:58;7.40;83.90
2897;DHT22;1458;49.728;9.228;2024-01-30T15:39:25;7.20;87.80
2897;DHT22;1458;49.728;9.228;2024-01-30T15:41:54;7.30;88.20
2897;DHT22;1458;49.728;9.228;2024-01-30T15:44:24;7.30;88.00
2897;DHT22;1458;49.728;9.228;2024-01-30T15:46:51;7.30;88.40
2897;DHT22;1458;49.728;9.228;2024-01-30T15:49:19;7.30;88.90
2897;DHT22;1458;49.728;9.228;2024-01-30T15:51:46;7.20;90.10
2897;DHT22;1458;49.728;9.228;2024-01-30T15:54:14;7.20;90.10
2897;DHT22;1458;49.728;9.228;2024-01-30T15:56:41;7.00;90.40
2897;DHT22;1458;49.728;9.228;2024-01-30T15:59:10;6.90;91.50
2897;DHT22;1458;49.728;9.228;2024-01-30T16:01:38;6.80;92.70
2897;DHT22;1458;49.728;9.228;2024-01-30T16:04:06;6.80;93.60
2897;DHT22;1458;49.728;9.228;2024-01-30T16:06:33;6.80;94.10
2897;DHT22;1458;49.728;9.228;2024-01-30T16:09:01;6.70;94.00
2897;DHT22;1458;49.728;9.228;2024-01-30T16:11:29;6.60;94.50
2897;DHT22;1458;49.728;9.228;2024-01-30T16:13:57;6.50;95.30
2897;DHT22;1458;49.728;9.228;2024-01-30T16:16:26;6.50;95.70
2897;DHT22;1458;49.728;9.228;2024-01-30T16:18:54;6.50;96.00
2897;DHT22;1458;49.728;9.228;2024-01-30T16:21:22;6.50;96.30
2897;DHT22;1458;49.728;9.228;2024-01-30T16:23:49;6.30;96.70